sensor_id;sensor_type;location;lat;lon;timestamp;P1;durP1;ratioP1;P2;durP2;ratioP2
3781;SDS011;6881;49.962;7.718;2022-12-07T00:01:57;9.70;;;5.53;;
3781;SDS011;6881;49.962;7.718;2022-12-07T00:04:22;7.47;;;5.10;;
3781;SDS011;6881;49.962;7.718;2022-12-07T00:06:50;7.67;;;4.73;;
3781;SDS011;6881;49.962;7.718;2022-12-07T00:09:17;8.53;;;6.00;;
3781;SDS011;6881;49.962;7.718;2022-12-07T00:11:43;9.20;;;6.97;;
3781;SDS011;6881;49.962;7.718;2022-12-07T00:14:13;8.60;;;5.00;;
3781;SDS011;6881;49.962;7.718;2022-12-07T00:16:39;10.80;;;5.33;;
3781;SDS011;6881;49.962;7.718;2022-12-07T00:19:05;7.40;;;5.70;;
3781;SDS011;6881;49.962;7.718;2022-12-07T00:21:31;9.70;;;7.00;;
3781;SDS011;6881;49.962;7.718;2022-12-07T00:24:00;8.17;;;5.90;;
3781;SDS011;6881;49.962;7.718;2022-12-07T00:26:30;12.90;;;7.10;;
3781;SDS011;6881;49.962;7.718;2022-12-07T00:28:58;10.70;;;7.53;;
3781;SDS011;6881;49.962;7.718;2022-12-07T00:31:25;11.30;;;7.47;;
3781;SDS011;6881;49.962;7.718;2022-12-07T00:33:52;11.43;;;5.90;;
3781;SDS011;6881;49.962;7.718;2022-12-07T00:36:18;10.40;;;6.23;;
3781;SDS011;6881;49.962;7.718;2022-12-07T00:38:45;8.50;;;6.67;;
3781;SDS011;6881;49.962;7.718;2022-12-07T00:41:11;10.50;;;6.27;;
3781;SDS011;6881;49.962;7.718;2022-12-07T00:43:38;10.63;;;6.80;;
3781;SDS011;6881;49.962;7.718;2022-12-07T00:46:05;13.83;;;8.03;;
3781;SDS011;6881;49.962;7.718;2022-12-07T00:48:30;8.33;;;5.00;;
3781;SDS011;6881;49.962;7.718;2022-12-07T00:50:56;13.97;;;7.27;;
3781;SDS011;6881;49.962;7.718;2022-12-07T00:53:21;6.87;;;5.43;;
3781;SDS011;6881;49.962;7.718;2022-12-07T00:55:47;7.80;;;5.27;;
3781;SDS011;6881;49.962;7.718;2022-12-07T00:58:12;9.10;;;4.77;;
3781;SDS011;6881;49.962;7.718;2022-12-07T01:00:38;8.33;;;4.80;;
3781;SDS011;6881;49.962;7.718;2022-12-07T01:03:05;6.13;;;4.20;;
3781;SDS011;6881;49.962;7.718;2022-12-07T01:05:31;7.93;;;4.80;;
3781;SDS011;6881;49.962;7.718;2022-12-07T01:07:57;9.53;;;3.83;;
3781;SDS011;6881;49.962;7.718;2022-12-07T01:10:23;6.90;;;4.30;;
3781;SDS011;6881;49.962;7.718;2022-12-07T01:12:48;5.10;;;3.10;;
3781;SDS011;6881;49.962;7.718;2022-12-07T01:15:13;5.40;;;3.87;;
3781;SDS011;6881;49.962;7.718;2022-12-07T01:17:39;5.43;;;3.63;;
3781;SDS011;6881;49.962;7.718;2022-12-07T01:20:04;5.93;;;3.50;;
3781;SDS011;6881;49.962;7.718;2022-12-07T01:22:30;5.97;;;3.10;;
3781;SDS011;6881;49.962;7.718;2022-12-07T01:24:56;5.13;;;3.37;;
3781;SDS011;6881;49.962;7.718;2022-12-07T01:27:21;6.63;;;3.20;;
3781;SDS011;6881;49.962;7.718;2022-12-07T01:29:46;8.27;;;4.97;;
3781;SDS011;6881;49.962;7.718;2022-12-07T01:32:12;5.37;;;3.73;;
3781;SDS011;6881;49.962;7.718;2022-12-07T01:34:37;6.33;;;4.33;;
3781;SDS011;6881;49.962;7.718;2022-12-07T01:37:02;8.67;;;5.30;;
3781;SDS011;6881;49.962;7.718;2022-12-07T01:39:28;8.10;;;4.57;;
3781;SDS011;6881;49.962;7.718;2022-12-07T01:41:53;11.13;;;7.13;;
3781;SDS011;6881;49.962;7.718;2022-12-07T01:44:26;12.77;;;6.73;;
3781;SDS011;6881;49.962;7.718;2022-12-07T01:46:59;10.20;;;6.30;;
3781;SDS011;6881;49.962;7.718;2022-12-07T01:49:31;10.30;;;6.60;;
3781;SDS011;6881;49.962;7.718;2022-12-07T01:54:47;13.67;;;7.67;;
3781;SDS011;6881;49.962;7.718;2022-12-07T01:57:13;12.33;;;7.17;;
3781;SDS011;6881;49.962;7.718;2022-12-07T01:59:40;13.50;;;7.90;;
3781;SDS011;6881;49.962;7.718;2022-12-07T02:02:07;12.90;;;8.43;;
3781;SDS011;6881;49.962;7.718;2022-12-07T02:04:37;11.80;;;7.50;;
3781;SDS011;6881;49.962;7.718;2022-12-07T02:07:02;20.03;;;9.13;;
3781;SDS011;6881;49.962;7.718;2022-12-07T02:09:28;15.00;;;8.57;;
3781;SDS011;6881;49.962;7.718;2022-12-07T02:11:53;15.90;;;8.23;;
3781;SDS011;6881;49.962;7.718;2022-12-07T02:14:19;15.27;;;9.63;;
3781;SDS011;6881;49.962;7.718;2022-12-07T02:25:09;18.10;;;10.77;;
3781;SDS011;6881;49.962;7.718;2022-12-07T02:27:46;18.77;;;10.30;;
3781;SDS011;6881;49.962;7.718;2022-12-07T02:30:17;15.50;;;9.80;;
3781;SDS011;6881;49.962;7.718;2022-12-07T02:41:42;16.87;;;9.17;;
3781;SDS011;6881;49.962;7.718;2022-12-07T02:43:53;19.83;;;10.70;;
3781;SDS011;6881;49.962;7.718;2022-12-07T02:46:21;21.73;;;8.97;;
3781;SDS011;6881;49.962;7.718;2022-12-07T02:48:48;16.83;;;9.63;;
3781;SDS011;6881;49.962;7.718;2022-12-07T02:51:16;17.60;;;10.27;;
3781;SDS011;6881;49.962;7.718;2022-12-07T02:53:43;13.63;;;8.80;;
3781;SDS011;6881;49.962;7.718;2022-12-07T03:06:36;16.27;;;9.73;;
3781;SDS011;6881;49.962;7.718;2022-12-07T03:09:15;19.40;;;10.73;;
3781;SDS011;6881;49.962;7.718;2022-12-07T03:11:50;12.47;;;7.43;;
3781;SDS011;6881;49.962;7.718;2022-12-07T03:14:25;18.63;;;10.33;;
3781;SDS011;6881;49.962;7.718;2022-12-07T03:16:57;18.07;;;10.60;;
3781;SDS011;6881;49.962;7.718;2022-12-07T03:19:24;16.23;;;9.57;;
3781;SDS011;6881;49.962;7.718;2022-12-07T03:22:02;17.10;;;11.00;;
3781;SDS011;6881;49.962;7.718;2022-12-07T03:24:30;19.07;;;9.73;;
3781;SDS011;6881;49.962;7.718;2022-12-07T03:27:06;17.23;;;10.47;;
3781;SDS011;6881;49.962;7.718;2022-12-07T03:29:36;17.83;;;10.47;;
3781;SDS011;6881;49.962;7.718;2022-12-07T03:32:11;16.70;;;9.60;;
3781;SDS011;6881;49.962;7.718;2022-12-07T03:34:45;20.30;;;9.70;;
3781;SDS011;6881;49.962;7.718;2022-12-07T03:37:18;16.60;;;10.40;;
3781;SDS011;6881;49.962;7.718;2022-12-07T03:39:57;18.23;;;9.90;;
3781;SDS011;6881;49.962;7.718;2022-12-07T03:42:46;17.13;;;10.30;;
3781;SDS011;6881;49.962;7.718;2022-12-07T03:45:12;17.03;;;9.20;;
3781;SDS011;6881;49.962;7.718;2022-12-07T03:47:42;17.23;;;9.27;;
3781;SDS011;6881;49.962;7.718;2022-12-07T03:53:09;19.33;;;9.97;;
3781;SDS011;6881;49.962;7.718;2022-12-07T03:55:40;20.63;;;12.63;;
3781;SDS011;6881;49.962;7.718;2022-12-07T03:58:12;16.87;;;9.23;;
3781;SDS011;6881;49.962;7.718;2022-12-07T04:00:41;16.70;;;10.07;;
3781;SDS011;6881;49.962;7.718;2022-12-07T04:03:07;20.70;;;10.20;;
3781;SDS011;6881;49.962;7.718;2022-12-07T04:05:32;14.17;;;9.80;;
3781;SDS011;6881;49.962;7.718;2022-12-07T04:07:58;20.10;;;10.37;;
3781;SDS011;6881;49.962;7.718;2022-12-07T04:10:23;17.10;;;10.73;;
3781;SDS011;6881;49.962;7.718;2022-12-07T04:12:48;17.57;;;9.93;;
3781;SDS011;6881;49.962;7.718;2022-12-07T04:15:14;18.13;;;10.90;;
3781;SDS011;6881;49.962;7.718;2022-12-07T04:17:39;21.33;;;12.30;;
3781;SDS011;6881;49.962;7.718;2022-12-07T04:20:04;18.57;;;9.73;;
3781;SDS011;6881;49.962;7.718;2022-12-07T04:22:30;16.37;;;9.70;;
3781;SDS011;6881;49.962;7.718;2022-12-07T04:24:56;17.13;;;10.00;;
3781;SDS011;6881;49.962;7.718;2022-12-07T04:27:21;15.93;;;12.07;;
3781;SDS011;6881;49.962;7.718;2022-12-07T04:29:47;16.20;;;10.73;;
3781;SDS011;6881;49.962;7.718;2022-12-07T04:32:12;16.53;;;9.77;;
3781;SDS011;6881;49.962;7.718;2022-12-07T04:34:37;17.50;;;9.53;;
3781;SDS011;6881;49.962;7.718;2022-12-07T04:37:03;14.87;;;10.00;;
3781;SDS011;6881;49.962;7.718;2022-12-07T04:39:29;15.30;;;9.80;;
3781;SDS011;6881;49.962;7.718;2022-12-07T04:41:56;17.70;;;11.10;;
3781;SDS011;6881;49.962;7.718;2022-12-07T04:44:22;18.17;;;11.40;;
3781;SDS011;6881;49.962;7.718;2022-12-07T04:46:48;15.57;;;9.20;;
3781;SDS011;6881;49.962;7.718;2022-12-07T04:49:13;21.30;;;11.73;;
3781;SDS011;6881;49.962;7.718;2022-12-07T04:51:39;16.50;;;10.97;;
3781;SDS011;6881;49.962;7.718;2022-12-07T04:54:05;14.70;;;10.67;;
3781;SDS011;6881;49.962;7.718;2022-12-07T04:56:30;20.23;;;9.33;;
3781;SDS011;6881;49.962;7.718;2022-12-07T04:58:56;20.10;;;9.73;;
3781;SDS011;6881;49.962;7.718;2022-12-07T05:01:21;17.43;;;8.70;;
3781;SDS011;6881;49.962;7.718;2022-12-07T05:03:47;18.03;;;9.53;;
3781;SDS011;6881;49.962;7.718;2022-12-07T05:06:13;17.70;;;10.77;;
3781;SDS011;6881;49.962;7.718;2022-12-07T05:08:38;18.57;;;11.10;;
3781;SDS011;6881;49.962;7.718;2022-12-07T05:11:04;20.80;;;10.87;;
3781;SDS011;6881;49.962;7.718;2022-12-07T05:13:30;19.23;;;12.40;;
3781;SDS011;6881;49.962;7.718;2022-12-07T05:15:56;15.53;;;9.07;;
3781;SDS011;6881;49.962;7.718;2022-12-07T05:18:21;16.20;;;10.30;;
3781;SDS011;6881;49.962;7.718;2022-12-07T05:20:46;17.73;;;9.77;;
3781;SDS011;6881;49.962;7.718;2022-12-07T05:23:12;14.10;;;9.30;;
3781;SDS011;6881;49.962;7.718;2022-12-07T05:25:37;18.07;;;9.10;;
3781;SDS011;6881;49.962;7.718;2022-12-07T05:28:03;14.83;;;9.20;;
3781;SDS011;6881;49.962;7.718;2022-12-07T05:30:29;14.83;;;9.27;;
3781;SDS011;6881;49.962;7.718;2022-12-07T05:32:54;17.30;;;10.57;;
3781;SDS011;6881;49.962;7.718;2022-12-07T05:35:20;16.27;;;10.37;;
3781;SDS011;6881;49.962;7.718;2022-12-07T05:37:45;16.07;;;10.47;;
3781;SDS011;6881;49.962;7.718;2022-12-07T05:40:11;21.77;;;12.27;;
3781;SDS011;6881;49.962;7.718;2022-12-07T05:42:37;26.17;;;13.70;;
3781;SDS011;6881;49.962;7.718;2022-12-07T05:45:03;24.40;;;12.53;;
3781;SDS011;6881;49.962;7.718;2022-12-07T05:47:29;21.73;;;11.00;;
3781;SDS011;6881;49.962;7.718;2022-12-07T05:49:54;20.40;;;12.43;;
3781;SDS011;6881;49.962;7.718;2022-12-07T05:52:20;19.90;;;11.97;;
3781;SDS011;6881;49.962;7.718;2022-12-07T05:54:46;22.30;;;12.20;;
3781;SDS011;6881;49.962;7.718;2022-12-07T05:57:11;31.40;;;21.40;;
3781;SDS011;6881;49.962;7.718;2022-12-07T05:59:36;25.47;;;14.60;;
3781;SDS011;6881;49.962;7.718;2022-12-07T06:02:03;22.63;;;12.80;;
3781;SDS011;6881;49.962;7.718;2022-12-07T06:04:31;24.07;;;11.60;;
3781;SDS011;6881;49.962;7.718;2022-12-07T06:06:58;19.00;;;12.17;;
3781;SDS011;6881;49.962;7.718;2022-12-07T06:09:24;22.03;;;12.63;;
3781;SDS011;6881;49.962;7.718;2022-12-07T06:11:51;29.90;;;15.73;;
3781;SDS011;6881;49.962;7.718;2022-12-07T06:14:35;26.70;;;15.73;;
3781;SDS011;6881;49.962;7.718;2022-12-07T06:17:00;53.63;;;36.93;;
3781;SDS011;6881;49.962;7.718;2022-12-07T06:19:26;30.43;;;19.60;;
3781;SDS011;6881;49.962;7.718;2022-12-07T06:21:51;28.03;;;15.33;;
3781;SDS011;6881;49.962;7.718;2022-12-07T06:24:18;24.57;;;14.03;;
3781;SDS011;6881;49.962;7.718;2022-12-07T06:26:43;21.73;;;12.73;;
3781;SDS011;6881;49.962;7.718;2022-12-07T06:29:09;27.07;;;13.80;;
3781;SDS011;6881;49.962;7.718;2022-12-07T06:31:35;24.70;;;13.60;;
3781;SDS011;6881;49.962;7.718;2022-12-07T06:34:02;23.47;;;12.57;;
3781;SDS011;6881;49.962;7.718;2022-12-07T06:36:29;26.47;;;14.20;;
3781;SDS011;6881;49.962;7.718;2022-12-07T06:38:54;21.53;;;14.00;;
3781;SDS011;6881;49.962;7.718;2022-12-07T06:41:20;23.33;;;14.70;;
3781;SDS011;6881;49.962;7.718;2022-12-07T06:43:45;23.20;;;15.13;;
3781;SDS011;6881;49.962;7.718;2022-12-07T06:46:11;22.57;;;12.57;;
3781;SDS011;6881;49.962;7.718;2022-12-07T06:48:37;18.77;;;12.47;;
3781;SDS011;6881;49.962;7.718;2022-12-07T06:51:02;22.30;;;11.30;;
3781;SDS011;6881;49.962;7.718;2022-12-07T06:53:28;16.57;;;12.27;;
3781;SDS011;6881;49.962;7.718;2022-12-07T06:55:53;17.10;;;11.50;;
3781;SDS011;6881;49.962;7.718;2022-12-07T06:58:19;17.27;;;12.67;;
3781;SDS011;6881;49.962;7.718;2022-12-07T07:00:44;21.40;;;13.40;;
3781;SDS011;6881;49.962;7.718;2022-12-07T07:03:10;16.97;;;10.37;;
3781;SDS011;6881;49.962;7.718;2022-12-07T07:05:35;21.87;;;15.60;;
3781;SDS011;6881;49.962;7.718;2022-12-07T07:08:01;20.23;;;11.80;;
3781;SDS011;6881;49.962;7.718;2022-12-07T07:10:26;24.97;;;12.30;;
3781;SDS011;6881;49.962;7.718;2022-12-07T07:12:51;19.07;;;11.67;;
3781;SDS011;6881;49.962;7.718;2022-12-07T07:15:17;19.13;;;10.90;;
3781;SDS011;6881;49.962;7.718;2022-12-07T07:17:42;19.10;;;11.40;;
3781;SDS011;6881;49.962;7.718;2022-12-07T07:20:08;19.13;;;11.77;;
3781;SDS011;6881;49.962;7.718;2022-12-07T07:22:34;18.23;;;10.77;;
3781;SDS011;6881;49.962;7.718;2022-12-07T07:24:59;19.30;;;12.47;;
3781;SDS011;6881;49.962;7.718;2022-12-07T07:27:24;21.20;;;12.23;;
3781;SDS011;6881;49.962;7.718;2022-12-07T07:29:50;18.43;;;12.10;;
3781;SDS011;6881;49.962;7.718;2022-12-07T07:32:15;20.83;;;12.53;;
3781;SDS011;6881;49.962;7.718;2022-12-07T07:34:40;24.37;;;13.90;;
3781;SDS011;6881;49.962;7.718;2022-12-07T07:37:06;19.40;;;12.27;;
3781;SDS011;6881;49.962;7.718;2022-12-07T07:39:31;16.33;;;11.37;;
3781;SDS011;6881;49.962;7.718;2022-12-07T07:41:56;23.77;;;11.40;;
3781;SDS011;6881;49.962;7.718;2022-12-07T07:44:22;19.90;;;11.40;;
3781;SDS011;6881;49.962;7.718;2022-12-07T07:46:47;21.50;;;11.13;;
3781;SDS011;6881;49.962;7.718;2022-12-07T07:49:13;19.27;;;9.47;;
3781;SDS011;6881;49.962;7.718;2022-12-07T07:51:38;17.00;;;10.33;;
3781;SDS011;6881;49.962;7.718;2022-12-07T07:54:03;17.73;;;10.00;;
3781;SDS011;6881;49.962;7.718;2022-12-07T07:56:29;19.30;;;10.70;;
3781;SDS011;6881;49.962;7.718;2022-12-07T07:58:54;14.10;;;10.03;;
3781;SDS011;6881;49.962;7.718;2022-12-07T08:01:19;14.40;;;8.77;;
3781;SDS011;6881;49.962;7.718;2022-12-07T08:03:47;16.97;;;9.57;;
3781;SDS011;6881;49.962;7.718;2022-12-07T08:06:13;15.20;;;8.80;;
3781;SDS011;6881;49.962;7.718;2022-12-07T08:08:38;12.83;;;7.53;;
3781;SDS011;6881;49.962;7.718;2022-12-07T08:11:07;14.83;;;9.53;;
3781;SDS011;6881;49.962;7.718;2022-12-07T08:13:33;14.33;;;10.00;;
3781;SDS011;6881;49.962;7.718;2022-12-07T08:15:58;18.83;;;10.80;;
3781;SDS011;6881;49.962;7.718;2022-12-07T08:18:28;16.50;;;9.60;;
3781;SDS011;6881;49.962;7.718;2022-12-07T08:20:58;15.43;;;9.43;;
3781;SDS011;6881;49.962;7.718;2022-12-07T08:23:25;17.33;;;10.43;;
3781;SDS011;6881;49.962;7.718;2022-12-07T08:25:51;20.70;;;10.70;;
3781;SDS011;6881;49.962;7.718;2022-12-07T08:28:16;16.40;;;9.90;;
3781;SDS011;6881;49.962;7.718;2022-12-07T08:30:41;17.57;;;9.10;;
3781;SDS011;6881;49.962;7.718;2022-12-07T08:33:07;11.10;;;7.43;;
3781;SDS011;6881;49.962;7.718;2022-12-07T08:35:32;13.83;;;9.10;;
3781;SDS011;6881;49.962;7.718;2022-12-07T08:37:59;13.70;;;8.67;;
3781;SDS011;6881;49.962;7.718;2022-12-07T08:40:24;14.33;;;9.33;;
3781;SDS011;6881;49.962;7.718;2022-12-07T08:42:50;7.27;;;5.70;;
3781;SDS011;6881;49.962;7.718;2022-12-07T08:45:16;11.53;;;6.27;;
3781;SDS011;6881;49.962;7.718;2022-12-07T08:47:48;8.50;;;5.87;;
3781;SDS011;6881;49.962;7.718;2022-12-07T08:50:17;9.03;;;6.37;;
3781;SDS011;6881;49.962;7.718;2022-12-07T08:52:43;11.63;;;6.83;;
3781;SDS011;6881;49.962;7.718;2022-12-07T08:55:11;12.30;;;6.80;;
3781;SDS011;6881;49.962;7.718;2022-12-07T08:57:37;8.50;;;6.77;;
3781;SDS011;6881;49.962;7.718;2022-12-07T09:00:03;12.70;;;7.90;;
3781;SDS011;6881;49.962;7.718;2022-12-07T09:02:30;16.33;;;11.40;;
3781;SDS011;6881;49.962;7.718;2022-12-07T09:04:56;12.97;;;6.97;;
3781;SDS011;6881;49.962;7.718;2022-12-07T09:07:21;11.13;;;7.87;;
3781;SDS011;6881;49.962;7.718;2022-12-07T09:09:47;13.50;;;7.83;;
3781;SDS011;6881;49.962;7.718;2022-12-07T09:12:12;10.10;;;6.87;;
3781;SDS011;6881;49.962;7.718;2022-12-07T09:14:37;10.50;;;5.70;;
3781;SDS011;6881;49.962;7.718;2022-12-07T09:17:07;6.10;;;5.07;;
3781;SDS011;6881;49.962;7.718;2022-12-07T09:19:33;7.90;;;6.50;;
3781;SDS011;6881;49.962;7.718;2022-12-07T09:21:59;7.77;;;5.60;;
3781;SDS011;6881;49.962;7.718;2022-12-07T09:24:24;9.20;;;5.87;;
3781;SDS011;6881;49.962;7.718;2022-12-07T09:26:49;10.67;;;6.03;;
3781;SDS011;6881;49.962;7.718;2022-12-07T09:29:15;13.27;;;7.87;;
3781;SDS011;6881;49.962;7.718;2022-12-07T09:31:40;8.50;;;6.03;;
3781;SDS011;6881;49.962;7.718;2022-12-07T09:34:05;6.80;;;5.17;;
3781;SDS011;6881;49.962;7.718;2022-12-07T09:36:32;7.70;;;4.87;;
3781;SDS011;6881;49.962;7.718;2022-12-07T09:38:57;8.10;;;5.70;;
3781;SDS011;6881;49.962;7.718;2022-12-07T09:41:23;5.30;;;4.53;;
3781;SDS011;6881;49.962;7.718;2022-12-07T09:43:49;5.63;;;4.40;;
3781;SDS011;6881;49.962;7.718;2022-12-07T09:46:15;8.13;;;5.27;;
3781;SDS011;6881;49.962;7.718;2022-12-07T09:48:42;8.37;;;5.47;;
3781;SDS011;6881;49.962;7.718;2022-12-07T09:51:15;6.70;;;5.83;;
3781;SDS011;6881;49.962;7.718;2022-12-07T09:53:42;8.20;;;4.60;;
3781;SDS011;6881;49.962;7.718;2022-12-07T09:56:10;5.30;;;4.17;;
3781;SDS011;6881;49.962;7.718;2022-12-07T09:58:37;11.60;;;4.70;;
3781;SDS011;6881;49.962;7.718;2022-12-07T10:01:11;7.23;;;5.60;;
3781;SDS011;6881;49.962;7.718;2022-12-07T10:03:39;7.90;;;5.17;;
3781;SDS011;6881;49.962;7.718;2022-12-07T10:06:06;10.27;;;5.63;;
3781;SDS011;6881;49.962;7.718;2022-12-07T10:08:31;8.07;;;5.60;;
3781;SDS011;6881;49.962;7.718;2022-12-07T10:10:57;6.33;;;4.20;;
3781;SDS011;6881;49.962;7.718;2022-12-07T10:14:09;6.30;;;5.50;;
3781;SDS011;6881;49.962;7.718;2022-12-07T10:16:35;7.90;;;4.90;;
3781;SDS011;6881;49.962;7.718;2022-12-07T10:21:58;5.87;;;3.90;;
3781;SDS011;6881;49.962;7.718;2022-12-07T10:24:30;6.03;;;4.03;;
3781;SDS011;6881;49.962;7.718;2022-12-07T10:26:56;7.10;;;5.07;;
3781;SDS011;6881;49.962;7.718;2022-12-07T10:29:32;5.90;;;4.83;;
3781;SDS011;6881;49.962;7.718;2022-12-07T10:34:40;5.63;;;4.20;;
3781;SDS011;6881;49.962;7.718;2022-12-07T10:42:17;4.60;;;3.97;;
3781;SDS011;6881;49.962;7.718;2022-12-07T10:44:43;7.13;;;4.33;;
3781;SDS011;6881;49.962;7.718;2022-12-07T11:01:21;6.13;;;4.60;;
3781;SDS011;6881;49.962;7.718;2022-12-07T11:06:34;7.97;;;4.57;;
3781;SDS011;6881;49.962;7.718;2022-12-07T11:09:34;6.00;;;4.50;;
3781;SDS011;6881;49.962;7.718;2022-12-07T11:12:12;6.67;;;4.30;;
3781;SDS011;6881;49.962;7.718;2022-12-07T11:22:50;7.20;;;4.90;;
3781;SDS011;6881;49.962;7.718;2022-12-07T11:33:26;6.20;;;5.10;;
3781;SDS011;6881;49.962;7.718;2022-12-07T11:38:41;6.27;;;5.60;;
3781;SDS011;6881;49.962;7.718;2022-12-07T11:41:08;5.93;;;3.80;;
3781;SDS011;6881;49.962;7.718;2022-12-07T11:43:48;5.77;;;4.30;;
3781;SDS011;6881;49.962;7.718;2022-12-07T11:46:19;3.73;;;3.40;;
3781;SDS011;6881;49.962;7.718;2022-12-07T11:51:28;5.23;;;4.10;;
3781;SDS011;6881;49.962;7.718;2022-12-07T11:54:02;5.20;;;4.20;;
3781;SDS011;6881;49.962;7.718;2022-12-07T11:56:31;6.50;;;3.90;;
3781;SDS011;6881;49.962;7.718;2022-12-07T11:59:12;11.03;;;4.70;;
3781;SDS011;6881;49.962;7.718;2022-12-07T12:04:51;6.27;;;4.33;;
3781;SDS011;6881;49.962;7.718;2022-12-07T12:07:24;9.03;;;5.53;;
3781;SDS011;6881;49.962;7.718;2022-12-07T12:09:55;10.00;;;5.37;;
3781;SDS011;6881;49.962;7.718;2022-12-07T12:17:34;7.30;;;3.60;;
3781;SDS011;6881;49.962;7.718;2022-12-07T12:22:53;7.73;;;4.53;;
3781;SDS011;6881;49.962;7.718;2022-12-07T12:25:47;8.03;;;5.33;;
3781;SDS011;6881;49.962;7.718;2022-12-07T12:28:18;6.73;;;5.10;;
3781;SDS011;6881;49.962;7.718;2022-12-07T12:31:14;5.07;;;4.53;;
3781;SDS011;6881;49.962;7.718;2022-12-07T12:33:46;9.17;;;5.20;;
3781;SDS011;6881;49.962;7.718;2022-12-07T12:38:48;4.77;;;3.23;;
3781;SDS011;6881;49.962;7.718;2022-12-07T13:15:43;5.70;;;3.33;;
3781;SDS011;6881;49.962;7.718;2022-12-07T13:18:24;5.40;;;3.57;;
3781;SDS011;6881;49.962;7.718;2022-12-07T13:26:14;6.10;;;3.60;;
3781;SDS011;6881;49.962;7.718;2022-12-07T13:33:48;4.60;;;3.70;;
3781;SDS011;6881;49.962;7.718;2022-12-07T13:36:23;5.23;;;3.90;;
3781;SDS011;6881;49.962;7.718;2022-12-07T13:38:57;11.07;;;4.80;;
3781;SDS011;6881;49.962;7.718;2022-12-07T13:41:28;7.90;;;5.10;;
3781;SDS011;6881;49.962;7.718;2022-12-07T13:44:15;9.83;;;5.50;;
3781;SDS011;6881;49.962;7.718;2022-12-07T13:49:20;7.57;;;3.90;;
3781;SDS011;6881;49.962;7.718;2022-12-07T13:51:50;7.30;;;3.90;;
3781;SDS011;6881;49.962;7.718;2022-12-07T13:54:16;9.50;;;5.00;;
3781;SDS011;6881;49.962;7.718;2022-12-07T13:56:41;8.17;;;4.83;;
3781;SDS011;6881;49.962;7.718;2022-12-07T13:59:17;7.53;;;3.70;;
3781;SDS011;6881;49.962;7.718;2022-12-07T14:01:45;5.53;;;3.53;;
3781;SDS011;6881;49.962;7.718;2022-12-07T14:06:56;6.47;;;4.70;;
3781;SDS011;6881;49.962;7.718;2022-12-07T14:09:23;9.20;;;5.73;;
3781;SDS011;6881;49.962;7.718;2022-12-07T14:11:50;6.57;;;3.87;;
3781;SDS011;6881;49.962;7.718;2022-12-07T14:14:18;6.93;;;5.00;;
3781;SDS011;6881;49.962;7.718;2022-12-07T14:17:01;9.57;;;5.43;;
3781;SDS011;6881;49.962;7.718;2022-12-07T14:19:40;6.70;;;5.77;;
3781;SDS011;6881;49.962;7.718;2022-12-07T14:22:08;6.07;;;4.10;;
3781;SDS011;6881;49.962;7.718;2022-12-07T14:24:43;7.80;;;3.67;;
3781;SDS011;6881;49.962;7.718;2022-12-07T14:27:19;8.10;;;4.00;;
3781;SDS011;6881;49.962;7.718;2022-12-07T14:29:47;6.83;;;3.77;;
3781;SDS011;6881;49.962;7.718;2022-12-07T14:32:18;10.17;;;3.77;;
3781;SDS011;6881;49.962;7.718;2022-12-07T14:37:25;4.83;;;3.97;;
3781;SDS011;6881;49.962;7.718;2022-12-07T14:39:51;4.40;;;3.17;;
3781;SDS011;6881;49.962;7.718;2022-12-07T14:42:16;8.57;;;5.27;;
3781;SDS011;6881;49.962;7.718;2022-12-07T14:44:42;5.80;;;4.90;;
3781;SDS011;6881;49.962;7.718;2022-12-07T14:47:11;5.93;;;3.47;;
3781;SDS011;6881;49.962;7.718;2022-12-07T14:49:36;6.10;;;3.63;;
3781;SDS011;6881;49.962;7.718;2022-12-07T14:52:02;8.80;;;6.30;;
3781;SDS011;6881;49.962;7.718;2022-12-07T14:54:30;6.43;;;4.53;;
3781;SDS011;6881;49.962;7.718;2022-12-07T14:56:56;4.53;;;3.30;;
3781;SDS011;6881;49.962;7.718;2022-12-07T14:59:21;6.97;;;4.00;;
3781;SDS011;6881;49.962;7.718;2022-12-07T15:01:47;10.13;;;4.33;;
3781;SDS011;6881;49.962;7.718;2022-12-07T15:04:12;9.97;;;3.60;;
3781;SDS011;6881;49.962;7.718;2022-12-07T15:06:37;5.87;;;5.03;;
3781;SDS011;6881;49.962;7.718;2022-12-07T15:09:03;8.10;;;6.23;;
3781;SDS011;6881;49.962;7.718;2022-12-07T15:11:29;6.37;;;5.20;;
3781;SDS011;6881;49.962;7.718;2022-12-07T15:13:54;6.43;;;5.60;;
3781;SDS011;6881;49.962;7.718;2022-12-07T15:16:36;6.10;;;5.33;;
3781;SDS011;6881;49.962;7.718;2022-12-07T15:19:05;5.30;;;4.20;;
3781;SDS011;6881;49.962;7.718;2022-12-07T15:21:31;7.33;;;4.80;;
3781;SDS011;6881;49.962;7.718;2022-12-07T15:23:56;6.43;;;5.13;;
3781;SDS011;6881;49.962;7.718;2022-12-07T15:26:21;7.20;;;4.93;;
3781;SDS011;6881;49.962;7.718;2022-12-07T15:28:47;7.30;;;4.70;;
3781;SDS011;6881;49.962;7.718;2022-12-07T15:31:13;9.20;;;5.23;;
3781;SDS011;6881;49.962;7.718;2022-12-07T15:33:39;14.43;;;6.90;;
3781;SDS011;6881;49.962;7.718;2022-12-07T15:36:05;14.57;;;9.40;;
3781;SDS011;6881;49.962;7.718;2022-12-07T15:38:30;13.47;;;8.70;;
3781;SDS011;6881;49.962;7.718;2022-12-07T15:40:56;18.30;;;8.40;;
3781;SDS011;6881;49.962;7.718;2022-12-07T15:43:22;10.03;;;7.30;;
3781;SDS011;6881;49.962;7.718;2022-12-07T15:46:06;11.57;;;8.07;;
3781;SDS011;6881;49.962;7.718;2022-12-07T15:48:32;12.33;;;7.33;;
3781;SDS011;6881;49.962;7.718;2022-12-07T15:51:01;10.60;;;8.17;;
3781;SDS011;6881;49.962;7.718;2022-12-07T15:53:28;9.30;;;8.17;;
3781;SDS011;6881;49.962;7.718;2022-12-07T15:55:53;11.80;;;9.10;;
3781;SDS011;6881;49.962;7.718;2022-12-07T15:58:18;11.20;;;8.87;;
3781;SDS011;6881;49.962;7.718;2022-12-07T16:00:44;16.00;;;9.80;;
3781;SDS011;6881;49.962;7.718;2022-12-07T16:03:09;11.90;;;8.80;;
3781;SDS011;6881;49.962;7.718;2022-12-07T16:05:34;12.30;;;8.13;;
3781;SDS011;6881;49.962;7.718;2022-12-07T16:08:00;11.27;;;6.97;;
3781;SDS011;6881;49.962;7.718;2022-12-07T16:10:25;9.53;;;5.93;;
3781;SDS011;6881;49.962;7.718;2022-12-07T16:12:50;9.33;;;6.30;;
3781;SDS011;6881;49.962;7.718;2022-12-07T16:15:16;11.10;;;7.50;;
3781;SDS011;6881;49.962;7.718;2022-12-07T16:17:41;8.50;;;6.43;;
3781;SDS011;6881;49.962;7.718;2022-12-07T16:20:07;8.60;;;7.17;;
3781;SDS011;6881;49.962;7.718;2022-12-07T16:22:33;11.23;;;6.57;;
3781;SDS011;6881;49.962;7.718;2022-12-07T16:24:58;11.80;;;8.97;;
3781;SDS011;6881;49.962;7.718;2022-12-07T16:27:23;11.27;;;8.03;;
3781;SDS011;6881;49.962;7.718;2022-12-07T16:29:49;11.90;;;8.23;;
3781;SDS011;6881;49.962;7.718;2022-12-07T16:32:14;12.37;;;8.27;;
3781;SDS011;6881;49.962;7.718;2022-12-07T16:34:39;10.43;;;8.33;;
3781;SDS011;6881;49.962;7.718;2022-12-07T16:37:05;11.70;;;8.57;;
3781;SDS011;6881;49.962;7.718;2022-12-07T16:39:30;13.33;;;10.10;;
3781;SDS011;6881;49.962;7.718;2022-12-07T16:41:56;19.87;;;11.57;;
3781;SDS011;6881;49.962;7.718;2022-12-07T16:44:21;24.27;;;14.40;;
3781;SDS011;6881;49.962;7.718;2022-12-07T16:46:46;22.37;;;11.17;;
3781;SDS011;6881;49.962;7.718;2022-12-07T16:49:12;17.87;;;11.97;;
3781;SDS011;6881;49.962;7.718;2022-12-07T16:51:38;16.70;;;11.20;;
3781;SDS011;6881;49.962;7.718;2022-12-07T16:54:04;15.10;;;10.17;;
3781;SDS011;6881;49.962;7.718;2022-12-07T16:56:29;12.63;;;8.43;;
3781;SDS011;6881;49.962;7.718;2022-12-07T16:58:54;10.17;;;7.23;;
3781;SDS011;6881;49.962;7.718;2022-12-07T17:01:23;15.43;;;8.50;;
3781;SDS011;6881;49.962;7.718;2022-12-07T17:03:48;12.67;;;9.17;;
3781;SDS011;6881;49.962;7.718;2022-12-07T17:06:14;11.00;;;8.50;;
3781;SDS011;6881;49.962;7.718;2022-12-07T17:08:44;14.67;;;9.70;;
3781;SDS011;6881;49.962;7.718;2022-12-07T17:11:16;16.30;;;10.50;;
3781;SDS011;6881;49.962;7.718;2022-12-07T17:13:45;13.67;;;9.10;;
3781;SDS011;6881;49.962;7.718;2022-12-07T17:16:30;10.43;;;6.57;;
3781;SDS011;6881;49.962;7.718;2022-12-07T17:18:55;10.80;;;6.67;;
3781;SDS011;6881;49.962;7.718;2022-12-07T17:21:21;7.20;;;6.40;;
3781;SDS011;6881;49.962;7.718;2022-12-07T17:23:47;9.00;;;6.37;;
3781;SDS011;6881;49.962;7.718;2022-12-07T17:26:14;10.13;;;6.40;;
3781;SDS011;6881;49.962;7.718;2022-12-07T17:28:41;9.30;;;5.90;;
3781;SDS011;6881;49.962;7.718;2022-12-07T17:31:07;9.50;;;6.03;;
3781;SDS011;6881;49.962;7.718;2022-12-07T17:33:34;11.13;;;6.60;;
3781;SDS011;6881;49.962;7.718;2022-12-07T17:36:00;13.60;;;6.23;;